Brant — 5BBK2 — position and weather

sailwx.info

Track history (hours):
 
Tides and Currents Weather Stations Pressure Air Temp Water Temp Dewpoint Dewpoint Depression Visibility Wind Speed Wind Dir Waves Ship Positions

Brant

Last reported at 2014-Oct-23 18:33 UTC. Time now 2014-Nov-01 10:32 UTC.
Position S 24°10' W 046°23'.
Warning: this ship's position is 8 days out of date.

Length 185 m; draft 6.3 m.

Type: Cargo ship. MMSI: 212372000.

Date/timePositionNaut miles runAvg speedWind from/ knotsBaromVisibWave heightAir tempDewpointWater temp
2014-Oct-23 18:33S 24°10' W 046°23'1010.1
2014-Oct-23 17:33S 24°00' W 046°20'4 3.7
2014-Oct-23 16:33S 23°57' W 046°19'0 0.0
2014-Oct-23 15:28S 23°57' W 046°19'0 0.0
2014-Oct-23 14:31S 23°57' W 046°19'0 0.0
2014-Oct-23 13:28S 23°57' W 046°19'0 0.0
2014-Oct-23 12:31S 23°57' W 046°19'0 0.0
2014-Oct-23 11:28S 23°57' W 046°19'0 0.0
2014-Oct-23 10:31S 23°57' W 046°19'0 0.0
2014-Oct-23 09:31S 23°57' W 046°19'0 0.0
2014-Oct-23 08:31S 23°57' W 046°19'0 0.0
2014-Oct-23 07:28S 23°57' W 046°19'0 0.0
2014-Oct-23 06:31S 23°57' W 046°19'0 0.0
2014-Oct-23 05:31S 23°57' W 046°19'0 0.0
2014-Oct-23 04:31S 23°57' W 046°19'0 0.0
2014-Oct-23 03:28S 23°57' W 046°19'0 0.0
2014-Oct-23 02:25S 23°57' W 046°19'0 0.0
2014-Oct-23 01:31S 23°57' W 046°19'0 0.0
2014-Oct-23 00:31S 23°57' W 046°19'0 0.0
2014-Oct-22 23:31S 23°57' W 046°19'0 0.0
2014-Oct-22 22:31S 23°57' W 046°19'0 0.0
2014-Oct-22 21:31S 23°57' W 046°19'0 0.0
2014-Oct-22 20:19S 23°57' W 046°19'2 2.2
2014-Oct-22 19:33S 23°58' W 046°18'6 5.9
2014-Oct-22 18:32S 24°04' W 046°19'2 0.1
2014-Oct-21 18:24S 24°06' W 046°20'1 0.1
2014-Oct-20 23:18S 24°05' W 046°19'4 5.0
2014-Oct-20 22:34S 24°01' W 046°20'0 0.0
2014-Oct-20 21:34S 24°01' W 046°20'0 0.0
2014-Oct-20 20:34S 24°01' W 046°20'0 0.0
2014-Oct-20 19:28S 24°01' W 046°20'0 0.3
2014-Oct-20 18:33S 24°02' W 046°20'3 3.3
2014-Oct-20 17:34S 24°04' W 046°18'  
Track history (hours):
 
Tides and Currents Weather Stations Pressure Air Temp Water Temp Dewpoint Dewpoint Depression Visibility Wind Speed Wind Dir Waves Ship Positions

Brant

Last reported at 2014-Oct-23 18:33 UTC. Time now 2014-Nov-01 10:32 UTC.
Position S 24°10' W 046°23'.
Warning: this ship's position is 8 days out of date.

Length 185 m; draft 6.3 m.

Type: Cargo ship. MMSI: 212372000.

Date/timePositionNaut miles runAvg speedWind from/ knotsBaromVisibWave heightAir tempDewpointWater temp
2014-Oct-23 18:33S 24°10' W 046°23'1010.1
2014-Oct-23 17:33S 24°00' W 046°20'4 3.7
2014-Oct-23 16:33S 23°57' W 046°19'0 0.0
2014-Oct-23 15:28S 23°57' W 046°19'0 0.0
2014-Oct-23 14:31S 23°57' W 046°19'0 0.0
2014-Oct-23 13:28S 23°57' W 046°19'0 0.0
2014-Oct-23 12:31S 23°57' W 046°19'0 0.0
2014-Oct-23 11:28S 23°57' W 046°19'0 0.0
2014-Oct-23 10:31S 23°57' W 046°19'0 0.0
2014-Oct-23 09:31S 23°57' W 046°19'0 0.0
2014-Oct-23 08:31S 23°57' W 046°19'0 0.0
2014-Oct-23 07:28S 23°57' W 046°19'0 0.0
2014-Oct-23 06:31S 23°57' W 046°19'0 0.0
2014-Oct-23 05:31S 23°57' W 046°19'0 0.0
2014-Oct-23 04:31S 23°57' W 046°19'0 0.0
2014-Oct-23 03:28S 23°57' W 046°19'0 0.0
2014-Oct-23 02:25S 23°57' W 046°19'0 0.0
2014-Oct-23 01:31S 23°57' W 046°19'0 0.0
2014-Oct-23 00:31S 23°57' W 046°19'0 0.0
2014-Oct-22 23:31S 23°57' W 046°19'0 0.0
2014-Oct-22 22:31S 23°57' W 046°19'0 0.0
2014-Oct-22 21:31S 23°57' W 046°19'0 0.0
2014-Oct-22 20:19S 23°57' W 046°19'2 2.2
2014-Oct-22 19:33S 23°58' W 046°18'6 5.9
2014-Oct-22 18:32S 24°04' W 046°19'2 0.1
2014-Oct-21 18:24S 24°06' W 046°20'1 0.1
2014-Oct-20 23:18S 24°05' W 046°19'4 5.0
2014-Oct-20 22:34S 24°01' W 046°20'0 0.0
2014-Oct-20 21:34S 24°01' W 046°20'0 0.0
2014-Oct-20 20:34S 24°01' W 046°20'0 0.0
2014-Oct-20 19:28S 24°01' W 046°20'0 0.3
2014-Oct-20 18:33S 24°02' W 046°20'3 3.3
2014-Oct-20 17:34S 24°04' W 046°18'  

Dump ship's entire track history